createdAt,value
2023-04-14T01:16:24.616Z,1.21
2023-04-14T07:30:03.896Z,0.99
2023-04-14T07:30:45.498Z,0.94
2023-04-14T07:31:27.949Z,0.81
2023-04-14T07:33:00.505Z,0.94
2023-04-14T07:33:41.838Z,0.94
2023-04-14T07:34:32.071Z,0.94
2023-04-14T07:35:08.505Z,0.94
2023-04-14T07:36:39.221Z,0.81
2023-04-14T07:37:27.444Z,0.81
2023-04-14T07:38:09.777Z,0.81
2023-04-14T07:40:12.688Z,0.81
2023-04-14T07:41:23.479Z,0.81
2023-04-14T07:41:57.248Z,0.81
2023-04-14T07:42:40.178Z,1.08
2023-04-14T07:43:33.024Z,0.94
2023-04-14T07:44:09.894Z,0.94
2023-04-14T07:44:54.212Z,0.81
2023-04-14T07:45:39.561Z,0.64
2023-04-14T07:46:24.501Z,1.08
2023-04-14T07:47:09.291Z,0.81
2023-04-14T07:47:56.376Z,0.81
2023-04-14T07:48:39.300Z,0.94
2023-04-14T07:49:27.207Z,1.08
2023-04-14T07:50:10.631Z,0.55
2023-04-14T07:50:54.568Z,1.08
2023-04-14T07:51:40.213Z,0.94
2023-04-14T07:52:24.844Z,0.67
2023-04-14T07:53:11.516Z,0.55
2023-04-14T07:53:57.981Z,0.55
2023-04-14T07:54:39.826Z,0.94
2023-04-14T07:55:26.921Z,0.94
2023-04-14T07:56:12.746Z,0.64
2023-04-14T07:56:55.508Z,0.94
2023-04-14T07:57:41.248Z,0.94
2023-04-14T07:58:26.709Z,0.94
2023-04-14T07:59:13.279Z,0.94
2023-04-14T07:59:57.481Z,0.55
2023-04-14T08:00:40.371Z,0.94
2023-04-14T08:01:34.716Z,0.94
2023-04-14T08:02:11.358Z,0.94
2023-04-14T08:02:55.916Z,0.64
2023-04-14T08:03:41.388Z,0.81
2023-04-14T08:04:28.428Z,0.82
2023-04-14T08:05:10.462Z,0.94
2023-04-14T08:05:55.607Z,0.81
2023-04-14T08:06:40.416Z,0.94
2023-04-14T08:07:26.283Z,0.94
2023-04-14T08:08:10.686Z,0.94
2023-04-14T08:08:55.837Z,0.55
2023-04-14T08:09:40.981Z,0.94
2023-04-14T08:10:27.290Z,0.64
2023-04-14T08:11:10.850Z,0.55
2023-04-14T08:11:55.961Z,0.55
2023-04-14T08:12:44.171Z,1.08
2023-04-14T08:13:26.264Z,0.81
2023-04-14T08:14:11.154Z,0.94
2023-04-14T08:14:56.661Z,0.94
2023-04-14T08:15:40.826Z,0.94
2023-04-14T08:16:26.224Z,1.08
2023-04-14T08:17:11.689Z,1.08
2023-04-14T08:17:56.393Z,0.81
2023-04-14T08:18:44.174Z,0.94
2023-04-14T08:19:26.693Z,0.94
2023-04-14T08:20:11.424Z,0.64
2023-04-14T08:20:57.828Z,0.94
2023-04-14T08:21:41.717Z,1.08
2023-04-14T08:22:26.404Z,0.81
2023-04-14T08:23:12.239Z,0.94
2023-04-14T08:23:57.490Z,1.08
2023-04-14T08:24:45.246Z,0.64
2023-04-14T08:25:27.036Z,0.94
2023-04-14T08:26:12.232Z,0.64
2023-04-14T08:26:57.200Z,0.67
2023-04-14T08:27:42.640Z,0.55
2023-04-14T10:29:12.348Z,0.81
2023-04-14T10:29:57.825Z,1.75
2023-04-14T10:30:45.948Z,1.61
2023-04-14T10:31:28.273Z,1.75
2023-04-14T10:32:12.045Z,1.88
2023-04-14T10:33:00.883Z,1.61
2023-04-14T10:33:45.417Z,1.61
2023-04-14T10:34:27.974Z,1.61
2023-04-14T10:35:12.949Z,1.75
2023-04-14T10:35:59.522Z,1.61
2023-04-14T10:37:08.935Z,1.61
2023-04-14T10:37:41.019Z,2.02
2023-04-14T10:38:13.837Z,1.88
2023-04-14T10:38:57.986Z,1.88
2023-04-14T10:39:43.100Z,1.61
2023-04-14T10:40:28.128Z,1.61
2023-04-14T10:41:16.423Z,1.88
2023-04-14T10:42:03.156Z,1.19
2023-04-14T10:43:06.407Z,1.75
2023-04-14T10:43:33.540Z,1.75
2023-04-14T10:44:13.106Z,1.37
2023-04-14T10:44:58.313Z,1.75
2023-04-14T10:45:43.462Z,1.75
2023-04-14T10:46:28.276Z,1.88
2023-04-14T10:47:13.813Z,1.75
2023-04-14T12:20:51.723Z,2.15
2023-04-14T12:21:37.076Z,2.02
2023-04-14T12:23:07.520Z,2.15
2023-04-14T12:23:52.574Z,1.28
2023-04-14T12:25:33.605Z,1.75
2023-04-14T12:25:40.259Z,2.15
2023-04-14T12:33:46.888Z,2.15
2023-04-14T12:34:29.543Z,2.15
2023-04-14T12:36:13.655Z,2.02
2023-04-14T12:36:49.717Z,1.88
2023-04-14T12:39:00.946Z,1.19
2023-04-14T12:39:51.181Z,1.75
2023-04-14T12:40:26.292Z,1.28
2023-04-14T12:41:14.697Z,1.75
2023-04-14T12:42:09.801Z,2.02
2023-04-14T13:27:57.977Z,1.88
2023-04-14T13:28:44.157Z,1.88
2023-04-14T13:29:27.875Z,2.15
2023-04-14T13:30:14.573Z,2.02
2023-04-14T13:35:08.263Z,2.15
2023-04-14T13:35:37.884Z,2.02
2023-04-14T13:36:13.458Z,2.02
2023-04-14T13:36:21.674Z,2.02
2023-04-14T13:37:06.899Z,1.88
2023-04-14T13:37:52.616Z,2.02
2023-04-14T13:38:39.360Z,1.46
2023-04-14T13:39:22.176Z,2.02
2023-04-14T13:40:07.449Z,1.88
2023-04-14T13:40:52.114Z,1.88
2023-04-14T13:41:37.275Z,2.02
2023-04-14T13:42:22.676Z,1.88
2023-04-14T13:43:07.257Z,1.88
2023-04-14T13:43:52.230Z,2.02
2023-04-14T13:44:37.714Z,2.15
2023-04-14T13:45:22.520Z,2.02
2023-04-14T13:46:07.508Z,2.15
2023-04-14T13:46:52.833Z,1.46
2023-04-14T13:47:37.661Z,2.02
2023-04-14T13:48:22.541Z,2.02
2023-04-14T13:49:07.494Z,1.88
2023-04-14T13:49:53.228Z,1.28
2023-04-14T13:50:37.849Z,1.88
2023-04-14T13:51:22.510Z,1.75
2023-04-14T13:52:08.719Z,1.48
2023-04-14T13:52:52.905Z,1.88
2023-04-14T13:53:38.652Z,1.88
2023-04-14T13:54:23.161Z,1.75
2023-04-14T13:55:08.124Z,2.15
2023-04-14T13:55:53.266Z,1.75
2023-04-14T13:56:38.821Z,2.02
2023-04-14T13:57:23.217Z,2.02
2023-04-14T13:58:08.396Z,2.42
2023-04-14T13:58:53.302Z,1.88
2023-04-14T13:59:41.696Z,2.02
2023-04-14T14:00:24.154Z,1.55
2023-04-14T14:01:08.637Z,2.15
2023-04-14T14:01:53.777Z,2.15
2023-04-14T14:02:38.805Z,1.75
2023-04-14T14:03:23.972Z,2.02
2023-04-14T14:04:08.740Z,1.37
2023-04-14T14:04:54.675Z,1.75
2023-04-14T14:05:39.364Z,1.88
2023-04-14T14:06:24.316Z,1.75
2023-04-14T14:07:09.366Z,2.02
2023-04-14T14:07:54.114Z,2.28
2023-04-14T14:08:39.588Z,1.28
2023-04-14T14:09:25.376Z,1.88
2023-04-14T14:10:09.610Z,1.46
2023-04-14T14:10:53.936Z,2.02
2023-04-14T14:11:39.839Z,1.28
2023-04-14T14:12:25.143Z,2.15
2023-04-14T14:13:09.520Z,2.15
2023-04-14T14:13:54.553Z,1.88
2023-04-14T14:14:39.942Z,2.02
2023-04-14T14:15:25.423Z,2.02
2023-04-14T14:16:09.583Z,1.75
2023-04-14T14:16:54.863Z,2.02
2023-04-14T14:17:39.961Z,2.02
2023-04-14T14:18:25.504Z,2.15
2023-04-14T14:19:09.956Z,2.02
2023-04-14T14:19:55.376Z,2.02
2023-04-14T14:20:40.790Z,1.88
2023-04-14T14:21:25.471Z,2.28
2023-04-14T14:22:10.406Z,2.15
2023-04-14T14:22:55.288Z,1.88
2023-04-14T14:23:40.720Z,2.15
2023-04-14T14:24:25.398Z,1.75
2023-04-14T14:25:56.074Z,2.15
2023-04-14T14:26:40.561Z,1.37
2023-04-14T14:27:26.226Z,2.02
2023-04-14T14:28:11.441Z,2.02
2023-04-14T14:28:55.890Z,2.02
2023-04-14T14:29:40.909Z,1.88
2023-04-14T14:30:26.535Z,2.02
2023-04-14T14:31:10.983Z,2.15
2023-04-14T14:31:55.870Z,2.02
2023-04-14T14:32:41.518Z,2.02
2023-04-14T14:33:26.142Z,1.75
2023-04-14T14:34:11.007Z,2.02
2023-04-14T14:34:56.264Z,2.15
2023-04-14T14:35:42.478Z,2.15
2023-04-14T14:36:26.459Z,2.02
2023-04-14T14:37:11.751Z,1.88
2023-04-14T14:38:00.815Z,1.61
2023-04-14T14:38:41.729Z,1.88
2023-04-14T14:39:26.835Z,1.75
2023-04-14T14:40:11.536Z,2.02
2023-04-14T14:40:57.910Z,1.10
2023-04-14T14:41:42.557Z,1.88
2023-04-14T14:42:27.517Z,1.75
2023-04-14T14:43:12.472Z,1.88
2023-04-14T14:43:57.500Z,1.37
2023-04-14T14:44:42.781Z,1.28
2023-04-14T14:45:31.019Z,2.02
2023-04-14T14:46:12.019Z,2.02
2023-04-14T14:46:57.251Z,2.02
2023-04-14T14:47:42.765Z,1.61
2023-04-14T14:48:27.314Z,1.75
2023-04-14T14:49:12.200Z,1.88
2023-04-14T14:50:00.746Z,1.88
2023-04-14T14:50:42.846Z,1.19
2023-04-14T14:51:27.577Z,1.75
2023-04-14T14:52:12.630Z,1.75
2023-04-14T14:52:58.326Z,1.19
2023-04-14T14:53:43.006Z,1.75
2023-04-14T14:54:37.035Z,1.61
2023-04-14T14:55:13.120Z,1.75
2023-04-14T14:55:58.526Z,1.19
2023-04-14T14:56:43.847Z,1.75
2023-04-14T14:57:28.139Z,1.75
2023-04-14T14:58:13.759Z,2.02
2023-04-14T14:58:58.767Z,1.88
2023-04-14T14:59:43.561Z,1.88
2023-04-14T15:00:28.178Z,1.88
2023-04-14T15:01:13.440Z,2.02
2023-04-14T15:01:58.967Z,1.75
2023-04-14T15:02:45.011Z,1.61
2023-04-14T15:03:29.449Z,1.75
2023-04-14T15:04:13.631Z,1.88
2023-04-14T15:04:58.947Z,1.75
2023-04-14T15:05:44.145Z,1.75
2023-04-14T15:06:29.083Z,1.75
2023-04-14T15:07:13.620Z,1.61
2023-04-14T15:07:58.476Z,1.19
2023-04-14T15:08:44.038Z,1.75
2023-04-14T15:09:28.384Z,1.88
2023-04-14T15:10:14.158Z,1.75
2023-04-14T15:10:59.336Z,1.61
2023-04-14T15:11:44.392Z,1.75
2023-04-14T15:12:29.291Z,1.88
2023-04-14T15:13:14.772Z,1.61
2023-04-14T15:13:59.625Z,1.61
2023-04-14T15:14:44.142Z,1.88
2023-04-14T15:15:30.255Z,1.19
2023-04-14T15:16:15.065Z,1.75
2023-04-14T15:17:01.330Z,1.19
2023-04-14T15:17:44.491Z,1.61
2023-04-14T15:18:29.717Z,1.75
2023-04-14T15:19:14.269Z,1.75
2023-04-14T15:19:59.826Z,1.75
2023-04-14T15:20:45.362Z,1.88
2023-04-14T15:21:30.006Z,1.75
2023-04-14T15:22:14.697Z,1.75
2023-04-14T15:23:00.136Z,1.75
2023-04-14T15:23:44.922Z,1.75
2023-04-14T15:24:30.927Z,1.61
2023-04-14T15:25:24.755Z,1.48
2023-04-14T15:26:00.198Z,1.61
2023-04-14T15:26:45.400Z,1.75
2023-04-14T15:27:30.417Z,1.19
2023-04-14T15:28:15.545Z,1.75
2023-04-14T15:29:00.729Z,1.88
2023-04-14T15:29:45.275Z,1.88
2023-04-14T15:30:30.746Z,1.75
2023-04-14T15:31:15.610Z,1.75
2023-04-14T15:32:00.822Z,1.48
2023-04-14T15:32:45.741Z,1.61
2023-04-14T15:33:30.920Z,1.10
2023-04-14T15:34:15.663Z,1.75
2023-04-14T15:35:00.671Z,1.61
2023-04-14T15:35:46.278Z,1.48
2023-04-14T15:36:32.746Z,1.48
2023-04-14T15:37:16.465Z,1.61
2023-04-14T15:38:01.020Z,1.28
2023-04-14T15:38:46.278Z,1.48
2023-04-14T15:39:31.524Z,1.48
2023-04-14T15:40:16.794Z,1.61
2023-04-14T15:41:01.148Z,1.48
2023-04-14T15:41:46.551Z,1.88
2023-04-14T15:42:31.688Z,1.75
2023-04-14T15:43:16.265Z,1.61
2023-04-14T15:44:01.837Z,1.48
2023-04-14T15:44:46.925Z,1.48
2023-04-14T15:45:31.373Z,1.00
2023-04-14T15:46:16.770Z,1.00
2023-04-14T15:47:01.592Z,1.61
2023-04-14T15:47:46.432Z,1.75
2023-04-14T15:48:31.949Z,1.75
2023-04-14T15:49:17.047Z,1.61
2023-04-14T15:50:09.894Z,1.48
2023-04-14T15:50:47.076Z,1.19
2023-04-14T15:51:32.131Z,1.61
2023-04-14T15:52:17.640Z,1.75
2023-04-14T15:53:02.563Z,1.88
2023-04-14T15:54:32.173Z,1.88
2023-04-14T15:55:17.564Z,1.75
2023-04-14T15:56:02.659Z,1.75
2023-04-14T15:56:47.512Z,1.88
2023-04-14T15:57:32.434Z,2.02
2023-04-14T15:58:17.109Z,1.88
2023-04-14T15:59:02.905Z,1.28
2023-04-14T15:59:47.729Z,2.02
2023-04-14T16:00:32.297Z,1.75
2023-04-14T16:01:18.011Z,1.75
2023-04-14T16:02:03.153Z,1.75
2023-04-14T16:02:47.979Z,1.28
2023-04-14T16:03:33.018Z,1.88
2023-04-14T16:04:17.950Z,1.88
2023-04-14T16:05:02.995Z,1.37
2023-04-14T16:05:48.604Z,1.88
2023-04-14T16:06:33.459Z,1.75
2023-04-14T16:07:18.615Z,1.61
2023-04-14T16:08:03.893Z,1.75
2023-04-14T16:08:48.660Z,1.88
2023-04-14T16:09:33.697Z,1.37
2023-04-14T16:10:18.212Z,1.88
2023-04-14T16:11:03.750Z,1.88
2023-04-14T16:11:48.945Z,1.88
2023-04-14T16:12:33.462Z,1.75
2023-04-14T16:13:18.998Z,1.19
2023-04-14T16:14:03.860Z,1.75
2023-04-14T16:14:49.207Z,1.75
2023-04-14T16:15:34.143Z,2.02
2023-04-14T16:16:19.116Z,1.75
2023-04-14T16:17:03.933Z,1.75
2023-04-14T16:17:49.126Z,1.75
2023-04-14T16:18:34.970Z,1.88
2023-04-14T16:19:20.972Z,1.61
2023-04-14T16:20:05.159Z,1.75
2023-04-14T16:20:49.683Z,1.19
2023-04-14T16:21:34.850Z,1.75
2023-04-14T16:22:19.127Z,1.75
2023-04-14T16:23:04.614Z,1.37
2023-04-14T16:23:50.156Z,1.88
2023-04-14T16:24:34.817Z,1.75
2023-04-14T16:25:20.819Z,1.75
2023-04-14T16:26:05.471Z,1.88
2023-04-14T16:26:49.739Z,1.88
2023-04-14T16:27:35.869Z,1.28
2023-04-14T16:28:20.025Z,1.61
2023-04-14T16:29:05.370Z,1.61
2023-04-14T16:29:49.587Z,1.88
2023-04-14T16:30:34.849Z,2.02
2023-04-14T16:31:20.452Z,2.15
2023-04-14T16:32:04.661Z,1.75
2023-04-14T16:32:50.509Z,1.28
2023-04-14T16:33:34.779Z,1.88
2023-04-14T16:34:20.031Z,1.88
2023-04-14T16:35:05.009Z,1.19
2023-04-14T16:35:50.096Z,1.28
2023-04-14T16:36:35.128Z,2.02
2023-04-14T16:37:20.160Z,1.88
2023-04-14T16:38:05.323Z,2.02
2023-04-14T16:38:51.115Z,1.88
2023-04-14T16:39:35.326Z,1.88
2023-04-14T16:40:20.096Z,1.88
2023-04-14T16:41:06.016Z,1.88
2023-04-14T16:41:50.600Z,1.19
2023-04-14T16:42:35.655Z,1.88
2023-04-14T16:43:20.711Z,1.61
2023-04-14T16:44:05.575Z,1.61
2023-04-14T16:44:50.617Z,1.88
2023-04-14T16:45:37.913Z,2.02
2023-04-14T16:46:20.789Z,2.02
2023-04-14T16:47:05.801Z,1.75
2023-04-14T16:47:50.799Z,1.75
2023-04-14T16:48:36.423Z,2.02
2023-04-14T16:49:21.309Z,1.75
2023-04-14T16:50:06.129Z,1.75
2023-04-14T16:50:51.188Z,1.88
2023-04-14T16:51:36.363Z,2.02
2023-04-14T16:52:21.604Z,1.88
2023-04-14T16:53:07.370Z,1.61
2023-04-14T16:53:51.700Z,1.75
2023-04-14T16:54:36.052Z,1.37
2023-04-14T16:55:21.734Z,1.88
2023-04-14T16:56:06.992Z,2.02
2023-04-14T16:56:51.449Z,2.02
2023-04-14T16:57:36.478Z,1.75
2023-04-14T16:58:21.827Z,1.88
2023-04-14T16:59:06.572Z,1.88
2023-04-14T16:59:52.036Z,1.75
2023-04-14T17:00:36.851Z,1.75
2023-04-14T17:01:22.142Z,1.75
2023-04-14T17:02:07.225Z,2.02
2023-04-14T17:02:52.888Z,1.88
2023-04-14T17:03:37.212Z,1.61
2023-04-14T17:04:22.724Z,1.61
2023-04-14T17:05:07.150Z,1.88
2023-04-14T17:05:52.088Z,2.15
2023-04-14T17:06:36.940Z,2.15
2023-04-14T17:07:22.433Z,2.02
2023-04-14T17:08:07.441Z,1.19
2023-04-14T17:08:52.292Z,1.75
2023-04-14T17:09:37.424Z,1.88
2023-04-14T17:10:22.614Z,1.88
2023-04-14T17:11:07.409Z,1.75
2023-04-14T17:11:52.336Z,1.75
2023-04-14T17:12:38.036Z,1.75
2023-04-14T17:13:22.346Z,2.02
2023-04-14T17:14:07.376Z,1.28
2023-04-14T17:14:52.243Z,1.88
2023-04-14T17:15:37.701Z,1.61
2023-04-14T17:16:22.561Z,1.75
2023-04-14T17:17:07.573Z,1.88
2023-04-14T17:17:52.542Z,1.88
2023-04-14T17:18:37.769Z,1.88
2023-04-14T17:19:22.981Z,1.88
2023-04-14T17:20:08.057Z,2.02
2023-04-14T17:20:52.887Z,2.28
2023-04-14T17:21:39.042Z,2.28
2023-04-14T17:22:22.813Z,1.88
2023-04-14T17:23:08.392Z,1.88
2023-04-14T17:23:53.310Z,1.75
2023-04-14T17:24:38.312Z,1.28
2023-04-14T17:25:23.390Z,1.88
2023-04-14T17:26:07.850Z,1.88
2023-04-14T17:26:53.471Z,1.19
2023-04-14T17:27:38.795Z,1.19
2023-04-14T17:28:23.760Z,2.02
2023-04-14T17:29:08.823Z,1.88
2023-04-14T17:29:53.563Z,2.15
2023-04-14T17:30:38.754Z,1.75
2023-04-14T17:31:23.619Z,1.28
2023-04-14T17:32:08.646Z,1.46
2023-04-14T17:32:53.954Z,1.88
2023-04-14T17:33:39.280Z,2.15
2023-04-14T17:34:24.371Z,1.28
2023-04-14T17:35:09.105Z,1.88
2023-04-14T17:35:54.033Z,2.15
2023-04-14T17:36:39.666Z,1.37
2023-04-14T17:37:24.282Z,2.15
2023-04-14T17:38:08.991Z,2.28
2023-04-14T17:38:53.776Z,2.28
2023-04-14T17:39:40.152Z,2.15
2023-04-14T17:40:25.277Z,2.28
2023-04-14T17:41:10.397Z,2.02
2023-04-14T17:41:54.334Z,2.28
2023-04-14T17:42:39.548Z,2.02
2023-04-14T17:43:24.348Z,2.02
2023-04-14T17:44:09.356Z,2.28
2023-04-14T17:44:54.824Z,2.15
2023-04-14T17:45:39.650Z,2.15
2023-04-14T17:46:24.536Z,1.46
2023-04-14T17:47:09.634Z,2.28
2023-04-14T17:47:54.601Z,2.42
2023-04-14T17:48:40.070Z,1.46
2023-04-14T17:49:24.863Z,2.15
2023-04-14T17:50:10.155Z,2.42
2023-04-14T17:50:55.358Z,2.28
2023-04-14T17:51:39.858Z,2.42
2023-04-14T17:52:25.518Z,2.42
2023-04-14T17:53:10.136Z,2.28
2023-04-14T17:53:55.204Z,2.28
2023-04-14T17:54:40.962Z,1.88
2023-04-14T17:55:25.958Z,1.46
2023-04-14T17:56:10.554Z,2.42
2023-04-14T17:56:55.390Z,2.02
2023-04-14T17:57:41.114Z,2.02
2023-04-14T17:58:25.432Z,2.15
2023-04-14T17:59:11.205Z,2.02
2023-04-14T17:59:55.674Z,1.88
2023-04-14T18:00:40.837Z,2.02
2023-04-14T18:01:26.228Z,2.15
2023-04-14T18:02:11.108Z,2.15
2023-04-14T18:02:56.344Z,2.15
2023-04-14T18:03:41.693Z,1.88
2023-04-14T18:04:25.717Z,1.37
2023-04-14T18:05:11.332Z,1.46
2023-04-14T18:05:56.751Z,2.02
2023-04-14T18:06:41.082Z,2.15
2023-04-14T18:07:26.081Z,2.15
2023-04-14T18:08:11.647Z,1.28
2023-04-14T18:08:56.127Z,1.88
2023-04-14T18:09:41.790Z,2.02
2023-04-14T18:10:25.993Z,2.28
2023-04-14T18:11:11.155Z,2.02
2023-04-14T18:11:57.311Z,1.37
2023-04-14T18:12:41.396Z,1.88
2023-04-14T18:13:26.629Z,1.88
2023-04-14T18:14:12.018Z,2.15
2023-04-14T18:14:56.881Z,2.15
2023-04-14T18:15:41.384Z,2.02
2023-04-14T18:16:26.799Z,1.37
2023-04-14T18:17:12.336Z,1.88
2023-04-14T18:17:57.304Z,2.02
2023-04-14T18:18:42.244Z,1.37
2023-04-14T18:19:26.704Z,2.02
2023-04-14T18:20:12.203Z,1.37
2023-04-14T18:20:57.359Z,1.28
2023-04-14T18:21:44.467Z,2.02
2023-04-14T18:22:26.896Z,2.15
2023-04-14T18:23:12.157Z,2.02
2023-04-14T18:25:27.679Z,2.02
2023-04-14T18:26:58.282Z,1.37
2023-04-14T18:28:27.353Z,1.88
2023-04-14T18:29:12.616Z,1.19
2023-04-14T18:29:57.716Z,1.37
2023-04-14T18:30:43.142Z,1.37
2023-04-14T18:31:27.876Z,1.88
2023-04-14T18:32:13.464Z,2.02
2023-04-14T18:32:57.843Z,2.02
2023-04-14T18:33:43.312Z,2.15
2023-04-14T18:34:28.742Z,2.15
2023-04-14T18:35:12.975Z,1.88
2023-04-14T18:35:57.931Z,2.02
2023-04-14T18:36:43.119Z,2.15
2023-04-14T18:37:28.144Z,2.15
2023-04-14T18:38:13.447Z,2.02
2023-04-14T18:38:57.994Z,1.88
2023-04-14T18:39:43.405Z,1.88
2023-04-14T18:40:28.358Z,1.37
2023-04-14T18:41:13.138Z,1.64
2023-04-14T18:41:58.830Z,2.15
2023-04-14T18:42:43.838Z,1.88
2023-04-14T18:43:28.792Z,2.02
2023-04-14T18:44:13.475Z,1.88
2023-04-14T18:44:58.288Z,2.02
2023-04-14T18:45:43.793Z,2.15
2023-04-14T18:46:29.341Z,1.88
2023-04-14T18:47:13.688Z,2.02
2023-04-14T18:47:59.099Z,1.28
2023-04-14T18:48:44.079Z,1.28
2023-04-14T18:49:28.957Z,1.61
2023-04-14T18:50:15.113Z,1.75
2023-04-14T18:50:59.101Z,1.88
2023-04-14T18:51:44.517Z,1.75
2023-04-14T18:52:29.949Z,2.15
2023-04-14T18:53:14.354Z,1.37
2023-04-14T18:53:59.755Z,2.02
2023-04-14T18:54:44.891Z,2.15
2023-04-14T18:55:41.494Z,2.42
2023-04-14T18:56:14.291Z,1.37
2023-04-14T18:57:00.725Z,2.02
2023-04-14T18:57:44.684Z,2.02
2023-04-14T18:58:30.395Z,1.28
2023-04-14T18:59:15.277Z,1.88
2023-04-14T18:59:59.515Z,2.02
2023-04-14T19:00:45.496Z,2.02
2023-04-14T19:01:29.870Z,1.46
2023-04-14T19:02:15.208Z,2.15
2023-04-14T19:03:00.751Z,2.02
2023-04-14T19:03:46.350Z,2.28
2023-04-14T19:04:30.313Z,2.28
2023-04-14T19:05:15.345Z,1.55
2023-04-14T19:06:00.906Z,2.42
2023-04-14T19:06:45.742Z,2.28
2023-04-14T19:07:30.112Z,2.28
2023-04-14T19:08:15.348Z,1.64
2023-04-14T19:09:00.776Z,2.28
2023-04-14T19:09:46.100Z,2.82
2023-04-14T19:10:30.746Z,2.82
2023-04-14T19:11:16.597Z,2.69
2023-04-14T19:12:00.850Z,2.69
2023-04-14T19:12:46.098Z,2.69
2023-04-14T19:13:33.641Z,2.96
2023-04-14T19:14:16.510Z,1.83
2023-04-14T19:15:00.654Z,1.92
2023-04-14T19:15:46.166Z,2.82
2023-04-14T19:16:30.851Z,2.55
2023-04-14T19:17:15.536Z,2.69
2023-04-14T19:18:01.521Z,1.92
2023-04-14T19:18:45.872Z,1.92
2023-04-14T19:19:30.679Z,2.55
2023-04-14T19:20:15.893Z,2.69
2023-04-14T19:21:01.570Z,2.96
2023-04-14T19:21:46.183Z,2.82
2023-04-14T19:22:31.831Z,2.96
2023-04-14T19:23:15.995Z,3.23
2023-04-14T19:24:01.071Z,3.09
2023-04-14T19:24:46.585Z,3.36
2023-04-14T19:25:31.758Z,3.23
2023-04-14T19:26:16.651Z,2.82
2023-04-14T19:27:00.876Z,2.82
2023-04-14T19:27:46.207Z,3.09
2023-04-14T19:28:31.050Z,2.82
2023-04-14T19:29:16.325Z,2.96
2023-04-14T19:30:01.568Z,2.10
2023-04-14T19:30:46.939Z,2.96
2023-04-14T19:31:31.441Z,2.96
2023-04-14T19:32:16.434Z,1.92
2023-04-14T19:33:01.621Z,1.92
2023-04-14T19:33:47.162Z,2.69
2023-04-14T19:34:32.849Z,2.10
2023-04-14T19:35:17.527Z,2.82
2023-04-14T19:36:02.461Z,2.96
2023-04-14T19:36:47.592Z,2.96
2023-04-14T19:37:33.367Z,2.82
2023-04-14T19:38:17.202Z,2.96
2023-04-14T19:39:02.548Z,2.96
2023-04-14T19:39:47.438Z,2.82
2023-04-14T19:40:33.400Z,2.82
2023-04-14T19:41:18.235Z,2.96
2023-04-14T19:42:02.798Z,2.96
2023-04-14T19:42:47.219Z,1.92
2023-04-14T19:43:32.549Z,2.82
2023-04-14T19:44:17.687Z,1.74
2023-04-14T19:45:03.193Z,3.09
2023-04-14T19:45:48.075Z,2.69
2023-04-14T19:46:40.944Z,2.96
2023-04-14T19:47:19.576Z,2.10
2023-04-14T19:48:10.086Z,2.10
2023-04-14T19:48:48.052Z,3.09
2023-04-14T19:49:33.185Z,2.82
2023-04-14T19:50:17.787Z,2.96
2023-04-14T19:51:02.470Z,2.69
2023-04-14T19:51:49.867Z,1.92
2023-04-14T19:52:33.071Z,1.83
2023-04-14T19:53:18.231Z,2.96
2023-04-14T19:54:02.759Z,2.96
2023-04-14T19:54:47.767Z,2.10
2023-04-14T19:55:33.179Z,2.82
2023-04-14T19:56:18.051Z,2.96
2023-04-14T19:57:05.078Z,2.96
2023-04-14T19:57:50.195Z,2.82
2023-04-14T19:58:35.377Z,3.09
2023-04-14T19:59:18.667Z,2.96
2023-04-14T20:00:06.859Z,2.96
2023-04-14T20:00:49.455Z,2.96
2023-04-14T20:01:35.228Z,2.96
2023-04-14T20:02:19.385Z,2.96
2023-04-14T20:03:03.758Z,3.09
2023-04-14T20:04:06.367Z,2.01
2023-04-14T20:04:34.002Z,2.01
2023-04-14T20:05:18.915Z,2.96
2023-04-14T20:06:03.456Z,2.69
2023-04-14T20:06:48.471Z,2.69
2023-04-14T20:07:33.671Z,2.82
2023-04-14T20:08:18.936Z,2.82
2023-04-14T20:09:04.276Z,3.09
2023-04-14T20:09:48.748Z,2.82
2023-04-14T20:10:33.899Z,2.96
2023-04-14T20:11:19.695Z,2.96
2023-04-14T20:12:04.942Z,2.96
2023-04-14T20:12:48.869Z,1.83
2023-04-14T20:13:33.929Z,2.82
2023-04-14T20:14:19.662Z,2.82
2023-04-14T20:15:05.001Z,3.09
2023-04-14T20:15:49.124Z,2.96
2023-04-14T20:16:35.109Z,2.69
2023-04-14T20:17:19.814Z,3.09
2023-04-14T20:18:04.588Z,1.92
2023-04-14T20:18:49.008Z,3.23
2023-04-14T20:19:35.320Z,2.69
2023-04-14T20:20:19.656Z,2.96
2023-04-14T20:21:05.008Z,2.82
2023-04-14T20:21:50.558Z,3.23
2023-04-14T20:22:35.316Z,3.23
2023-04-14T20:23:20.089Z,2.69
2023-04-14T20:24:05.427Z,2.10
2023-04-14T20:24:49.887Z,1.92
2023-04-14T20:25:34.936Z,2.10
2023-04-14T20:26:20.425Z,3.23
2023-04-14T20:27:05.662Z,2.10
2023-04-14T20:27:50.608Z,2.96
2023-04-14T20:28:35.587Z,1.83
2023-04-14T20:29:21.064Z,1.83
2023-04-14T20:30:05.378Z,3.09
2023-04-14T20:30:50.396Z,2.96
2023-04-14T20:31:35.828Z,2.96
2023-04-14T20:32:20.610Z,2.01
2023-04-14T20:33:06.028Z,3.09
2023-04-14T20:33:51.036Z,1.92
2023-04-14T20:34:35.721Z,2.82
2023-04-14T20:35:20.873Z,3.36
2023-04-14T20:36:05.410Z,2.82
2023-04-14T20:36:50.907Z,1.92
2023-04-14T20:37:35.834Z,2.82
2023-04-14T20:38:21.416Z,2.69
2023-04-14T20:39:06.128Z,2.69
2023-04-14T20:39:50.921Z,1.92
2023-04-14T20:40:36.218Z,2.82
2023-04-14T20:41:21.524Z,2.96
2023-04-14T20:42:05.869Z,2.96
2023-04-14T20:42:51.966Z,2.96
2023-04-14T20:43:36.227Z,3.09
2023-04-14T20:44:21.452Z,1.92
2023-04-14T20:45:06.677Z,1.92
2023-04-14T20:46:00.704Z,2.96
2023-04-14T20:46:36.546Z,2.82
2023-04-14T20:47:21.495Z,2.82
2023-04-14T20:48:06.534Z,3.23
2023-04-14T20:48:52.523Z,3.36
2023-04-14T20:49:37.769Z,2.82
2023-04-14T20:50:22.226Z,3.09
2023-04-14T20:51:06.541Z,3.09
2023-04-14T20:51:51.915Z,2.82
2023-04-14T20:52:39.247Z,2.01
2023-04-14T20:53:22.247Z,2.69
2023-04-14T20:54:07.132Z,2.01
2023-04-14T20:54:52.201Z,2.01
2023-04-14T20:55:37.585Z,2.96
2023-04-14T20:56:22.350Z,2.96
2023-04-14T20:57:07.305Z,3.09
2023-04-14T20:57:52.051Z,2.01
2023-04-14T20:58:37.028Z,1.92
2023-04-14T20:59:22.268Z,2.82
2023-04-14T21:00:07.223Z,1.92
2023-04-14T21:00:52.435Z,2.96
2023-04-14T21:01:37.754Z,2.96
2023-04-14T21:02:22.879Z,3.09
2023-04-14T21:03:07.611Z,2.96
2023-04-14T21:03:52.870Z,2.10
2023-04-14T21:04:37.684Z,2.69
2023-04-14T21:05:24.100Z,2.82
2023-04-14T21:06:08.667Z,2.82
2023-04-14T21:06:53.261Z,2.96
2023-04-14T21:07:38.594Z,3.09
2023-04-14T21:08:22.943Z,2.82
2023-04-14T21:09:07.995Z,2.55
2023-04-14T21:09:53.059Z,2.55
2023-04-14T21:11:23.184Z,2.69
2023-04-14T21:12:14.544Z,2.55
2023-04-14T21:15:27.161Z,2.69
2023-04-14T21:15:30.460Z,2.69
2023-04-14T21:15:31.452Z,2.69
2023-04-14T21:15:47.305Z,1.74
2023-04-14T21:15:55.455Z,2.55
2023-04-14T21:16:38.541Z,2.96
2023-04-14T21:17:23.659Z,2.82
2023-04-14T21:18:08.777Z,2.82
2023-04-14T21:18:53.935Z,1.83
2023-04-14T21:19:39.203Z,1.74
2023-04-14T21:20:24.104Z,2.55
2023-04-14T21:21:09.799Z,2.82
2023-04-14T21:21:54.405Z,1.92
2023-04-14T21:22:39.662Z,1.74
2023-04-14T21:23:24.593Z,2.96
2023-04-14T21:24:09.108Z,1.83
2023-04-14T21:24:54.221Z,2.82
2023-04-14T21:25:39.857Z,2.82
2023-04-14T21:26:24.571Z,2.55
2023-04-14T21:27:10.204Z,2.82
2023-04-14T21:27:54.513Z,1.74
2023-04-14T21:28:40.113Z,2.82
2023-04-14T21:29:24.948Z,2.82
2023-04-14T21:30:09.849Z,1.92
2023-04-14T21:30:55.293Z,2.69
2023-04-14T21:31:39.944Z,2.82
2023-04-14T21:32:25.024Z,2.82
2023-04-14T21:33:10.256Z,2.69
2023-04-14T21:33:55.190Z,2.96
2023-04-14T21:34:40.115Z,1.74
2023-04-14T21:35:25.218Z,2.69
2023-04-14T21:36:10.045Z,2.42
2023-04-14T21:36:54.678Z,2.55
2023-04-14T21:38:25.901Z,2.55
2023-04-14T21:39:10.288Z,1.55
2023-04-14T21:39:55.142Z,2.28
2023-04-14T21:40:40.272Z,2.42
2023-04-14T21:41:25.851Z,2.55
2023-04-14T21:42:10.897Z,2.28
2023-04-14T21:42:55.701Z,2.15
2023-04-14T21:43:40.829Z,2.28
2023-04-14T21:44:25.496Z,1.55
2023-04-14T21:45:11.173Z,2.28
2023-04-14T21:45:56.052Z,2.28
2023-04-14T21:46:41.469Z,1.55
2023-04-14T21:47:25.953Z,2.42
2023-04-14T21:48:10.992Z,1.64
2023-04-14T21:48:56.101Z,2.15
2023-04-14T21:49:41.771Z,2.42
2023-04-14T21:50:29.929Z,2.55
2023-04-14T21:51:10.904Z,2.42
2023-04-14T21:51:56.260Z,2.42
2023-04-14T21:52:41.717Z,2.28
2023-04-14T21:53:26.662Z,2.02
2023-04-14T21:54:11.594Z,2.42
2023-04-14T21:54:56.758Z,2.02
2023-04-14T21:55:41.361Z,2.02
2023-04-14T21:56:26.626Z,2.42
2023-04-14T21:57:11.224Z,2.55
2023-04-14T21:57:56.768Z,1.46
2023-04-14T21:58:42.686Z,1.88
2023-04-14T21:59:26.682Z,2.28
2023-04-14T22:00:12.176Z,2.55
2023-04-14T22:00:57.454Z,2.55
2023-04-14T22:01:41.983Z,2.42
2023-04-14T22:02:26.955Z,2.28
2023-04-14T22:03:13.048Z,2.42
2023-04-14T22:03:57.539Z,2.28
2023-04-14T22:04:46.965Z,2.42
2023-04-14T22:05:27.447Z,2.42
2023-04-14T22:06:13.012Z,2.28
2023-04-14T22:06:58.173Z,2.55
2023-04-14T22:07:42.533Z,2.42
2023-04-14T22:08:28.380Z,2.42
2023-04-14T22:09:12.620Z,2.42
2023-04-14T22:09:57.877Z,2.28